sensor_id;sensor_type;location;lat;lon;timestamp;P1;durP1;ratioP1;P2;durP2;ratioP2
19566;SDS011;9930;49.240;8.548;2024-01-27T00:02:07;2.93;;;2.00;;
19566;SDS011;9930;49.240;8.548;2024-01-27T00:04:35;4.00;;;2.40;;
19566;SDS011;9930;49.240;8.548;2024-01-27T00:07:02;2.80;;;1.73;;
19566;SDS011;9930;49.240;8.548;2024-01-27T00:09:27;4.43;;;2.37;;
19566;SDS011;9930;49.240;8.548;2024-01-27T00:11:53;2.77;;;2.20;;
19566;SDS011;9930;49.240;8.548;2024-01-27T00:14:24;3.37;;;2.03;;
19566;SDS011;9930;49.240;8.548;2024-01-27T00:16:53;3.87;;;2.40;;
19566;SDS011;9930;49.240;8.548;2024-01-27T00:19:19;4.53;;;2.90;;
19566;SDS011;9930;49.240;8.548;2024-01-27T00:21:46;3.07;;;2.50;;
19566;SDS011;9930;49.240;8.548;2024-01-27T00:24:14;4.27;;;2.80;;
19566;SDS011;9930;49.240;8.548;2024-01-27T00:26:43;4.17;;;3.20;;
19566;SDS011;9930;49.240;8.548;2024-01-27T00:29:09;3.57;;;2.97;;
19566;SDS011;9930;49.240;8.548;2024-01-27T00:31:35;4.13;;;2.90;;
19566;SDS011;9930;49.240;8.548;2024-01-27T00:34:03;4.13;;;2.57;;
19566;SDS011;9930;49.240;8.548;2024-01-27T00:36:31;4.17;;;2.50;;
19566;SDS011;9930;49.240;8.548;2024-01-27T00:38:56;3.93;;;2.50;;
19566;SDS011;9930;49.240;8.548;2024-01-27T00:41:22;3.47;;;2.47;;
19566;SDS011;9930;49.240;8.548;2024-01-27T00:43:48;3.40;;;2.50;;
19566;SDS011;9930;49.240;8.548;2024-01-27T00:46:18;3.80;;;2.30;;
19566;SDS011;9930;49.240;8.548;2024-01-27T00:48:44;2.57;;;1.97;;
19566;SDS011;9930;49.240;8.548;2024-01-27T00:51:14;2.23;;;1.90;;
19566;SDS011;9930;49.240;8.548;2024-01-27T00:53:40;2.47;;;2.00;;
19566;SDS011;9930;49.240;8.548;2024-01-27T00:56:06;3.03;;;2.03;;
19566;SDS011;9930;49.240;8.548;2024-01-27T00:58:32;4.83;;;4.33;;
19566;SDS011;9930;49.240;8.548;2024-01-27T01:00:58;6.87;;;5.77;;
19566;SDS011;9930;49.240;8.548;2024-01-27T01:03:26;9.13;;;8.23;;
19566;SDS011;9930;49.240;8.548;2024-01-27T01:05:52;9.23;;;7.63;;
19566;SDS011;9930;49.240;8.548;2024-01-27T01:08:22;5.73;;;5.30;;
19566;SDS011;9930;49.240;8.548;2024-01-27T01:10:50;5.13;;;3.80;;
19566;SDS011;9930;49.240;8.548;2024-01-27T01:13:19;3.20;;;2.90;;
19566;SDS011;9930;49.240;8.548;2024-01-27T01:15:44;2.93;;;2.67;;
19566;SDS011;9930;49.240;8.548;2024-01-27T01:18:10;2.67;;;2.47;;
19566;SDS011;9930;49.240;8.548;2024-01-27T01:20:38;3.97;;;2.80;;
19566;SDS011;9930;49.240;8.548;2024-01-27T01:23:04;3.13;;;2.53;;
19566;SDS011;9930;49.240;8.548;2024-01-27T01:25:30;4.13;;;2.70;;
19566;SDS011;9930;49.240;8.548;2024-01-27T01:27:58;3.37;;;2.83;;
19566;SDS011;9930;49.240;8.548;2024-01-27T01:30:28;3.30;;;2.47;;
19566;SDS011;9930;49.240;8.548;2024-01-27T01:32:57;3.37;;;2.80;;
19566;SDS011;9930;49.240;8.548;2024-01-27T01:35:30;4.07;;;2.30;;
19566;SDS011;9930;49.240;8.548;2024-01-27T01:37:56;2.57;;;2.37;;
19566;SDS011;9930;49.240;8.548;2024-01-27T01:40:22;2.70;;;2.50;;
19566;SDS011;9930;49.240;8.548;2024-01-27T01:42:51;4.07;;;2.67;;
19566;SDS011;9930;49.240;8.548;2024-01-27T01:45:19;3.27;;;2.40;;
19566;SDS011;9930;49.240;8.548;2024-01-27T01:47:47;4.33;;;2.57;;
19566;SDS011;9930;49.240;8.548;2024-01-27T01:50:13;3.37;;;2.53;;
19566;SDS011;9930;49.240;8.548;2024-01-27T01:52:41;2.93;;;2.50;;
19566;SDS011;9930;49.240;8.548;2024-01-27T01:55:09;4.10;;;2.70;;
19566;SDS011;9930;49.240;8.548;2024-01-27T01:57:35;3.70;;;2.90;;
19566;SDS011;9930;49.240;8.548;2024-01-27T02:00:01;2.97;;;2.50;;
19566;SDS011;9930;49.240;8.548;2024-01-27T02:02:31;3.50;;;2.70;;
19566;SDS011;9930;49.240;8.548;2024-01-27T02:04:59;2.90;;;2.60;;
19566;SDS011;9930;49.240;8.548;2024-01-27T02:07:24;2.40;;;2.20;;
19566;SDS011;9930;49.240;8.548;2024-01-27T02:09:50;2.27;;;2.07;;
19566;SDS011;9930;49.240;8.548;2024-01-27T02:12:16;2.80;;;2.60;;
19566;SDS011;9930;49.240;8.548;2024-01-27T02:14:42;2.57;;;2.20;;
19566;SDS011;9930;49.240;8.548;2024-01-27T02:17:09;2.77;;;2.20;;
19566;SDS011;9930;49.240;8.548;2024-01-27T02:19:35;3.10;;;2.20;;
19566;SDS011;9930;49.240;8.548;2024-01-27T02:22:03;3.00;;;2.07;;
19566;SDS011;9930;49.240;8.548;2024-01-27T02:24:33;4.10;;;2.23;;
19566;SDS011;9930;49.240;8.548;2024-01-27T02:27:01;2.50;;;2.30;;
19566;SDS011;9930;49.240;8.548;2024-01-27T02:29:27;2.90;;;2.30;;
19566;SDS011;9930;49.240;8.548;2024-01-27T02:31:56;2.80;;;2.60;;
19566;SDS011;9930;49.240;8.548;2024-01-27T02:34:24;2.67;;;2.43;;
19566;SDS011;9930;49.240;8.548;2024-01-27T02:36:52;3.53;;;2.23;;
19566;SDS011;9930;49.240;8.548;2024-01-27T02:39:20;2.97;;;2.60;;
19566;SDS011;9930;49.240;8.548;2024-01-27T02:41:46;4.10;;;2.70;;
19566;SDS011;9930;49.240;8.548;2024-01-27T02:44:13;3.20;;;2.80;;
19566;SDS011;9930;49.240;8.548;2024-01-27T02:46:38;3.50;;;2.43;;
19566;SDS011;9930;49.240;8.548;2024-01-27T02:49:09;3.90;;;2.93;;
19566;SDS011;9930;49.240;8.548;2024-01-27T02:51:37;3.40;;;2.90;;
19566;SDS011;9930;49.240;8.548;2024-01-27T02:54:05;4.20;;;3.00;;
19566;SDS011;9930;49.240;8.548;2024-01-27T02:56:35;4.07;;;2.97;;
19566;SDS011;9930;49.240;8.548;2024-01-27T02:59:03;3.73;;;2.90;;
19566;SDS011;9930;49.240;8.548;2024-01-27T03:01:32;3.20;;;2.90;;
19566;SDS011;9930;49.240;8.548;2024-01-27T03:03:58;4.40;;;3.20;;
19566;SDS011;9930;49.240;8.548;2024-01-27T03:06:23;3.00;;;2.70;;
19566;SDS011;9930;49.240;8.548;2024-01-27T03:08:51;3.97;;;2.77;;
19566;SDS011;9930;49.240;8.548;2024-01-27T03:11:17;3.10;;;2.80;;
19566;SDS011;9930;49.240;8.548;2024-01-27T03:13:45;3.00;;;2.70;;
19566;SDS011;9930;49.240;8.548;2024-01-27T03:16:11;3.60;;;2.80;;
19566;SDS011;9930;49.240;8.548;2024-01-27T03:18:38;3.17;;;2.87;;
19566;SDS011;9930;49.240;8.548;2024-01-27T03:21:05;3.30;;;3.00;;
19566;SDS011;9930;49.240;8.548;2024-01-27T03:23:35;3.63;;;3.10;;
19566;SDS011;9930;49.240;8.548;2024-01-27T03:26:02;3.67;;;3.03;;
19566;SDS011;9930;49.240;8.548;2024-01-27T03:28:30;3.73;;;3.20;;
19566;SDS011;9930;49.240;8.548;2024-01-27T03:30:56;3.83;;;2.80;;
19566;SDS011;9930;49.240;8.548;2024-01-27T03:33:27;3.23;;;2.93;;
19566;SDS011;9930;49.240;8.548;2024-01-27T03:35:55;3.20;;;2.90;;
19566;SDS011;9930;49.240;8.548;2024-01-27T03:38:21;3.03;;;2.70;;
19566;SDS011;9930;49.240;8.548;2024-01-27T03:40:47;3.20;;;2.77;;
19566;SDS011;9930;49.240;8.548;2024-01-27T03:43:13;2.87;;;2.57;;
19566;SDS011;9930;49.240;8.548;2024-01-27T03:45:43;3.57;;;2.70;;
19566;SDS011;9930;49.240;8.548;2024-01-27T03:48:11;3.43;;;3.10;;
19566;SDS011;9930;49.240;8.548;2024-01-27T03:50:41;3.60;;;2.83;;
19566;SDS011;9930;49.240;8.548;2024-01-27T03:53:09;3.60;;;2.70;;
19566;SDS011;9930;49.240;8.548;2024-01-27T03:55:37;3.10;;;2.60;;
19566;SDS011;9930;49.240;8.548;2024-01-27T03:58:05;2.80;;;2.60;;
19566;SDS011;9930;49.240;8.548;2024-01-27T04:00:34;4.83;;;2.70;;
19566;SDS011;9930;49.240;8.548;2024-01-27T04:03:02;3.87;;;2.80;;
19566;SDS011;9930;49.240;8.548;2024-01-27T04:05:33;3.97;;;3.10;;
19566;SDS011;9930;49.240;8.548;2024-01-27T04:07:58;3.80;;;3.47;;
19566;SDS011;9930;49.240;8.548;2024-01-27T04:10:28;3.40;;;2.87;;
19566;SDS011;9930;49.240;8.548;2024-01-27T04:12:57;3.63;;;3.10;;
19566;SDS011;9930;49.240;8.548;2024-01-27T04:15:23;3.63;;;3.27;;
19566;SDS011;9930;49.240;8.548;2024-01-27T04:17:53;3.20;;;2.80;;
19566;SDS011;9930;49.240;8.548;2024-01-27T04:20:19;3.40;;;3.10;;
19566;SDS011;9930;49.240;8.548;2024-01-27T04:22:45;3.97;;;2.80;;
19566;SDS011;9930;49.240;8.548;2024-01-27T04:25:13;4.23;;;3.77;;
19566;SDS011;9930;49.240;8.548;2024-01-27T04:27:41;4.47;;;3.27;;
19566;SDS011;9930;49.240;8.548;2024-01-27T04:30:10;3.50;;;3.20;;
19566;SDS011;9930;49.240;8.548;2024-01-27T04:32:37;3.67;;;3.27;;
19566;SDS011;9930;49.240;8.548;2024-01-27T04:35:04;4.03;;;3.37;;
19566;SDS011;9930;49.240;8.548;2024-01-27T04:37:33;3.77;;;3.37;;
19566;SDS011;9930;49.240;8.548;2024-01-27T04:39:59;3.87;;;3.23;;
19566;SDS011;9930;49.240;8.548;2024-01-27T04:42:27;3.40;;;3.10;;
19566;SDS011;9930;49.240;8.548;2024-01-27T04:44:53;4.63;;;3.10;;
19566;SDS011;9930;49.240;8.548;2024-01-27T04:47:31;3.93;;;3.23;;
19566;SDS011;9930;49.240;8.548;2024-01-27T04:49:57;3.80;;;3.00;;
19566;SDS011;9930;49.240;8.548;2024-01-27T04:52:23;3.90;;;3.30;;
19566;SDS011;9930;49.240;8.548;2024-01-27T04:54:49;3.83;;;3.40;;
19566;SDS011;9930;49.240;8.548;2024-01-27T04:57:15;4.50;;;3.40;;
19566;SDS011;9930;49.240;8.548;2024-01-27T04:59:41;3.60;;;3.30;;
19566;SDS011;9930;49.240;8.548;2024-01-27T05:02:07;4.23;;;3.67;;
19566;SDS011;9930;49.240;8.548;2024-01-27T05:04:33;3.33;;;3.03;;
19566;SDS011;9930;49.240;8.548;2024-01-27T05:06:58;3.73;;;3.43;;
19566;SDS011;9930;49.240;8.548;2024-01-27T05:09:25;4.73;;;2.80;;
19566;SDS011;9930;49.240;8.548;2024-01-27T05:11:59;4.67;;;3.20;;
19566;SDS011;9930;49.240;8.548;2024-01-27T05:14:29;3.53;;;3.23;;
19566;SDS011;9930;49.240;8.548;2024-01-27T05:16:55;4.63;;;3.43;;
19566;SDS011;9930;49.240;8.548;2024-01-27T05:19:20;3.70;;;3.40;;
19566;SDS011;9930;49.240;8.548;2024-01-27T05:21:46;3.53;;;3.07;;
19566;SDS011;9930;49.240;8.548;2024-01-27T05:24:14;4.13;;;3.60;;
19566;SDS011;9930;49.240;8.548;2024-01-27T05:26:40;4.10;;;3.70;;
19566;SDS011;9930;49.240;8.548;2024-01-27T05:29:10;4.53;;;3.20;;
19566;SDS011;9930;49.240;8.548;2024-01-27T05:31:39;4.13;;;3.73;;
19566;SDS011;9930;49.240;8.548;2024-01-27T05:34:12;3.90;;;3.60;;
19566;SDS011;9930;49.240;8.548;2024-01-27T05:36:43;4.53;;;4.13;;
19566;SDS011;9930;49.240;8.548;2024-01-27T05:39:11;4.20;;;3.90;;
19566;SDS011;9930;49.240;8.548;2024-01-27T05:41:39;4.93;;;3.80;;
19566;SDS011;9930;49.240;8.548;2024-01-27T05:44:07;4.17;;;3.80;;
19566;SDS011;9930;49.240;8.548;2024-01-27T05:46:35;4.90;;;4.50;;
19566;SDS011;9930;49.240;8.548;2024-01-27T05:49:01;4.57;;;4.17;;
19566;SDS011;9930;49.240;8.548;2024-01-27T05:51:31;4.63;;;4.23;;
19566;SDS011;9930;49.240;8.548;2024-01-27T05:53:58;5.00;;;4.30;;
19566;SDS011;9930;49.240;8.548;2024-01-27T05:56:24;4.10;;;3.70;;
19566;SDS011;9930;49.240;8.548;2024-01-27T05:58:50;4.13;;;3.73;;
19566;SDS011;9930;49.240;8.548;2024-01-27T06:01:18;4.13;;;3.60;;
19566;SDS011;9930;49.240;8.548;2024-01-27T06:03:44;5.83;;;4.30;;
19566;SDS011;9930;49.240;8.548;2024-01-27T06:06:10;5.30;;;4.53;;
19566;SDS011;9930;49.240;8.548;2024-01-27T06:08:36;5.73;;;4.97;;
19566;SDS011;9930;49.240;8.548;2024-01-27T06:11:04;9.27;;;6.53;;
19566;SDS011;9930;49.240;8.548;2024-01-27T06:13:33;8.80;;;6.23;;
19566;SDS011;9930;49.240;8.548;2024-01-27T06:15:59;8.30;;;6.40;;
19566;SDS011;9930;49.240;8.548;2024-01-27T06:18:25;9.00;;;6.37;;
19566;SDS011;9930;49.240;8.548;2024-01-27T06:20:50;8.50;;;5.87;;
19566;SDS011;9930;49.240;8.548;2024-01-27T06:23:16;6.97;;;5.50;;
19566;SDS011;9930;49.240;8.548;2024-01-27T06:25:42;7.90;;;5.87;;
19566;SDS011;9930;49.240;8.548;2024-01-27T06:28:10;6.97;;;5.93;;
19566;SDS011;9930;49.240;8.548;2024-01-27T06:30:36;9.00;;;5.87;;
19566;SDS011;9930;49.240;8.548;2024-01-27T06:33:02;9.17;;;6.03;;
19566;SDS011;9930;49.240;8.548;2024-01-27T06:35:30;9.03;;;6.20;;
19566;SDS011;9930;49.240;8.548;2024-01-27T06:38:01;7.67;;;5.53;;
19566;SDS011;9930;49.240;8.548;2024-01-27T06:40:26;9.00;;;6.63;;
19566;SDS011;9930;49.240;8.548;2024-01-27T06:42:53;7.40;;;5.93;;
19566;SDS011;9930;49.240;8.548;2024-01-27T06:45:22;7.80;;;5.80;;
19566;SDS011;9930;49.240;8.548;2024-01-27T06:47:50;8.53;;;6.00;;
19566;SDS011;9930;49.240;8.548;2024-01-27T06:50:19;10.60;;;5.90;;
19566;SDS011;9930;49.240;8.548;2024-01-27T06:52:44;6.40;;;5.43;;
19566;SDS011;9930;49.240;8.548;2024-01-27T06:55:12;8.93;;;5.90;;
19566;SDS011;9930;49.240;8.548;2024-01-27T06:57:38;6.03;;;5.27;;
19566;SDS011;9930;49.240;8.548;2024-01-27T07:00:07;6.87;;;5.23;;
19566;SDS011;9930;49.240;8.548;2024-01-27T07:02:33;5.70;;;4.93;;
19566;SDS011;9930;49.240;8.548;2024-01-27T07:05:02;6.07;;;4.47;;
19566;SDS011;9930;49.240;8.548;2024-01-27T07:07:28;6.43;;;4.43;;
19566;SDS011;9930;49.240;8.548;2024-01-27T07:09:54;6.30;;;4.57;;
19566;SDS011;9930;49.240;8.548;2024-01-27T07:12:21;5.23;;;4.50;;
19566;SDS011;9930;49.240;8.548;2024-01-27T07:14:54;6.23;;;4.77;;
19566;SDS011;9930;49.240;8.548;2024-01-27T07:17:24;5.90;;;5.37;;
19566;SDS011;9930;49.240;8.548;2024-01-27T07:19:53;5.70;;;5.03;;
19566;SDS011;9930;49.240;8.548;2024-01-27T07:22:19;6.30;;;5.17;;
19566;SDS011;9930;49.240;8.548;2024-01-27T07:24:47;6.20;;;5.60;;
19566;SDS011;9930;49.240;8.548;2024-01-27T07:27:16;9.57;;;7.30;;
19566;SDS011;9930;49.240;8.548;2024-01-27T07:29:44;7.80;;;7.03;;
19566;SDS011;9930;49.240;8.548;2024-01-27T07:32:12;8.03;;;6.83;;
19566;SDS011;9930;49.240;8.548;2024-01-27T07:34:41;7.80;;;7.00;;
19566;SDS011;9930;49.240;8.548;2024-01-27T07:37:10;7.80;;;6.83;;
19566;SDS011;9930;49.240;8.548;2024-01-27T07:39:38;6.43;;;5.77;;
19566;SDS011;9930;49.240;8.548;2024-01-27T07:42:04;7.73;;;6.43;;
19566;SDS011;9930;49.240;8.548;2024-01-27T07:44:31;7.37;;;6.17;;
19566;SDS011;9930;49.240;8.548;2024-01-27T07:46:57;8.07;;;6.23;;
19566;SDS011;9930;49.240;8.548;2024-01-27T07:49:25;9.13;;;7.17;;
19566;SDS011;9930;49.240;8.548;2024-01-27T07:51:53;7.27;;;6.20;;
19566;SDS011;9930;49.240;8.548;2024-01-27T07:54:20;7.80;;;6.03;;
19566;SDS011;9930;49.240;8.548;2024-01-27T07:56:48;6.97;;;6.27;;
19566;SDS011;9930;49.240;8.548;2024-01-27T07:59:16;6.73;;;6.00;;
19566;SDS011;9930;49.240;8.548;2024-01-27T08:01:42;5.97;;;5.40;;
19566;SDS011;9930;49.240;8.548;2024-01-27T08:04:08;7.57;;;5.80;;
19566;SDS011;9930;49.240;8.548;2024-01-27T08:06:34;6.50;;;5.90;;
19566;SDS011;9930;49.240;8.548;2024-01-27T08:09:13;6.23;;;5.63;;
19566;SDS011;9930;49.240;8.548;2024-01-27T08:11:40;7.67;;;6.80;;
19566;SDS011;9930;49.240;8.548;2024-01-27T08:14:06;8.73;;;7.77;;
19566;SDS011;9930;49.240;8.548;2024-01-27T08:16:34;8.47;;;6.83;;
19566;SDS011;9930;49.240;8.548;2024-01-27T08:19:00;7.97;;;7.17;;
19566;SDS011;9930;49.240;8.548;2024-01-27T08:21:26;8.97;;;7.57;;
19566;SDS011;9930;49.240;8.548;2024-01-27T08:23:53;9.07;;;7.97;;
19566;SDS011;9930;49.240;8.548;2024-01-27T08:26:20;10.27;;;9.00;;
19566;SDS011;9930;49.240;8.548;2024-01-27T08:28:49;8.27;;;7.27;;
19566;SDS011;9930;49.240;8.548;2024-01-27T08:31:14;7.73;;;6.30;;
19566;SDS011;9930;49.240;8.548;2024-01-27T08:33:42;7.53;;;6.70;;
19566;SDS011;9930;49.240;8.548;2024-01-27T08:36:12;7.93;;;6.97;;
19566;SDS011;9930;49.240;8.548;2024-01-27T08:38:39;9.60;;;7.40;;
19566;SDS011;9930;49.240;8.548;2024-01-27T08:41:07;7.87;;;6.70;;
19566;SDS011;9930;49.240;8.548;2024-01-27T08:43:35;8.33;;;7.40;;
19566;SDS011;9930;49.240;8.548;2024-01-27T08:46:01;7.67;;;6.87;;
19566;SDS011;9930;49.240;8.548;2024-01-27T08:48:27;7.10;;;6.40;;
19566;SDS011;9930;49.240;8.548;2024-01-27T08:50:56;7.43;;;6.63;;
19566;SDS011;9930;49.240;8.548;2024-01-27T08:53:25;9.67;;;7.47;;
19566;SDS011;9930;49.240;8.548;2024-01-27T08:55:53;7.87;;;7.07;;
19566;SDS011;9930;49.240;8.548;2024-01-27T08:58:23;12.40;;;9.87;;
19566;SDS011;9930;49.240;8.548;2024-01-27T09:00:49;11.70;;;9.53;;
19566;SDS011;9930;49.240;8.548;2024-01-27T09:03:15;9.90;;;8.43;;
19566;SDS011;9930;49.240;8.548;2024-01-27T09:05:48;10.40;;;9.30;;
19566;SDS011;9930;49.240;8.548;2024-01-27T09:08:15;8.30;;;7.40;;
19566;SDS011;9930;49.240;8.548;2024-01-27T09:10:41;8.67;;;7.53;;
19566;SDS011;9930;49.240;8.548;2024-01-27T09:13:07;6.30;;;5.70;;
19566;SDS011;9930;49.240;8.548;2024-01-27T09:15:35;5.83;;;4.77;;
19566;SDS011;9930;49.240;8.548;2024-01-27T09:18:03;6.53;;;5.20;;
19566;SDS011;9930;49.240;8.548;2024-01-27T09:20:32;5.43;;;4.93;;
19566;SDS011;9930;49.240;8.548;2024-01-27T09:23:01;5.20;;;4.70;;
19566;SDS011;9930;49.240;8.548;2024-01-27T09:25:29;5.33;;;4.77;;
19566;SDS011;9930;49.240;8.548;2024-01-27T09:27:58;9.00;;;6.35;;
19566;SDS011;9930;49.240;8.548;2024-01-27T09:30:28;8.93;;;7.03;;
19566;SDS011;9930;49.240;8.548;2024-01-27T09:32:57;7.75;;;5.72;;
19566;SDS011;9930;49.240;8.548;2024-01-27T09:35:24;5.35;;;4.68;;
19566;SDS011;9930;49.240;8.548;2024-01-27T09:37:50;7.88;;;4.97;;
19566;SDS011;9930;49.240;8.548;2024-01-27T09:40:18;7.13;;;4.90;;
19566;SDS011;9930;49.240;8.548;2024-01-27T09:42:46;6.60;;;4.65;;
19566;SDS011;9930;49.240;8.548;2024-01-27T09:45:30;5.78;;;3.80;;
19566;SDS011;9930;49.240;8.548;2024-01-27T09:47:57;4.50;;;4.00;;
19566;SDS011;9930;49.240;8.548;2024-01-27T09:50:25;3.83;;;3.53;;
19566;SDS011;9930;49.240;8.548;2024-01-27T09:52:59;4.55;;;3.75;;
19566;SDS011;9930;49.240;8.548;2024-01-27T09:55:26;5.00;;;4.32;;
19566;SDS011;9930;49.240;8.548;2024-01-27T09:58:02;5.70;;;4.50;;
19566;SDS011;9930;49.240;8.548;2024-01-27T10:00:32;4.45;;;3.95;;
19566;SDS011;9930;49.240;8.548;2024-01-27T10:03:03;4.85;;;4.32;;
19566;SDS011;9930;49.240;8.548;2024-01-27T10:05:31;5.68;;;4.25;;
19566;SDS011;9930;49.240;8.548;2024-01-27T10:07:57;4.97;;;4.47;;
19566;SDS011;9930;49.240;8.548;2024-01-27T10:10:23;5.47;;;4.32;;
19566;SDS011;9930;49.240;8.548;2024-01-27T10:12:52;8.38;;;4.95;;
19566;SDS011;9930;49.240;8.548;2024-01-27T10:15:21;8.90;;;5.53;;
19566;SDS011;9930;49.240;8.548;2024-01-27T10:17:48;6.15;;;5.22;;
19566;SDS011;9930;49.240;8.548;2024-01-27T10:20:15;6.28;;;5.47;;
19566;SDS011;9930;49.240;8.548;2024-01-27T10:22:44;7.30;;;5.50;;
19566;SDS011;9930;49.240;8.548;2024-01-27T10:25:10;6.60;;;4.63;;
19566;SDS011;9930;49.240;8.548;2024-01-27T10:27:37;6.03;;;5.15;;
19566;SDS011;9930;49.240;8.548;2024-01-27T10:30:04;8.15;;;5.43;;
19566;SDS011;9930;49.240;8.548;2024-01-27T10:32:35;7.55;;;5.32;;
19566;SDS011;9930;49.240;8.548;2024-01-27T10:35:05;6.70;;;5.35;;
19566;SDS011;9930;49.240;8.548;2024-01-27T10:37:36;7.43;;;5.40;;
19566;SDS011;9930;49.240;8.548;2024-01-27T10:40:08;5.93;;;4.85;;
19566;SDS011;9930;49.240;8.548;2024-01-27T10:42:35;7.60;;;4.70;;
19566;SDS011;9930;49.240;8.548;2024-01-27T10:45:02;6.63;;;4.40;;
19566;SDS011;9930;49.240;8.548;2024-01-27T10:47:32;4.25;;;3.83;;
19566;SDS011;9930;49.240;8.548;2024-01-27T10:50:01;4.72;;;3.90;;
19566;SDS011;9930;49.240;8.548;2024-01-27T10:52:32;5.40;;;4.50;;
19566;SDS011;9930;49.240;8.548;2024-01-27T10:55:10;4.82;;;3.75;;
19566;SDS011;9930;49.240;8.548;2024-01-27T10:57:40;5.38;;;3.58;;
19566;SDS011;9930;49.240;8.548;2024-01-27T11:00:09;5.20;;;3.38;;
19566;SDS011;9930;49.240;8.548;2024-01-27T11:02:40;5.05;;;3.55;;
19566;SDS011;9930;49.240;8.548;2024-01-27T11:05:09;5.07;;;3.47;;
19566;SDS011;9930;49.240;8.548;2024-01-27T11:07:39;5.20;;;3.80;;
19566;SDS011;9930;49.240;8.548;2024-01-27T11:10:07;4.90;;;3.03;;
19566;SDS011;9930;49.240;8.548;2024-01-27T11:12:33;3.40;;;3.00;;
19566;SDS011;9930;49.240;8.548;2024-01-27T11:15:00;5.47;;;3.20;;
19566;SDS011;9930;49.240;8.548;2024-01-27T11:17:37;4.78;;;2.80;;
19566;SDS011;9930;49.240;8.548;2024-01-27T11:20:08;4.03;;;2.80;;
19566;SDS011;9930;49.240;8.548;2024-01-27T11:22:39;4.70;;;3.00;;
19566;SDS011;9930;49.240;8.548;2024-01-27T11:27:46;4.07;;;2.90;;
19566;SDS011;9930;49.240;8.548;2024-01-27T11:33:00;5.35;;;3.38;;
19566;SDS011;9930;49.240;8.548;2024-01-27T11:35:31;6.43;;;2.88;;
19566;SDS011;9930;49.240;8.548;2024-01-27T11:37:57;3.83;;;2.67;;
19566;SDS011;9930;49.240;8.548;2024-01-27T11:40:28;3.92;;;2.65;;
19566;SDS011;9930;49.240;8.548;2024-01-27T11:42:55;5.78;;;3.00;;
19566;SDS011;9930;49.240;8.548;2024-01-27T11:45:23;3.65;;;2.92;;
19566;SDS011;9930;49.240;8.548;2024-01-27T11:47:49;5.88;;;3.47;;
19566;SDS011;9930;49.240;8.548;2024-01-27T11:50:17;4.75;;;3.00;;
19566;SDS011;9930;49.240;8.548;2024-01-27T11:52:47;6.10;;;3.50;;
19566;SDS011;9930;49.240;8.548;2024-01-27T11:55:13;5.53;;;3.88;;
19566;SDS011;9930;49.240;8.548;2024-01-27T11:57:43;5.55;;;4.18;;
19566;SDS011;9930;49.240;8.548;2024-01-27T12:00:12;7.85;;;5.80;;
19566;SDS011;9930;49.240;8.548;2024-01-27T12:02:38;5.85;;;4.45;;
19566;SDS011;9930;49.240;8.548;2024-01-27T12:05:04;5.78;;;4.07;;
19566;SDS011;9930;49.240;8.548;2024-01-27T12:07:31;6.60;;;4.90;;
19566;SDS011;9930;49.240;8.548;2024-01-27T12:10:00;7.18;;;5.43;;
19566;SDS011;9930;49.240;8.548;2024-01-27T12:12:29;8.90;;;5.97;;
19566;SDS011;9930;49.240;8.548;2024-01-27T12:14:55;6.72;;;4.57;;
19566;SDS011;9930;49.240;8.548;2024-01-27T12:17:25;7.53;;;4.90;;
19566;SDS011;9930;49.240;8.548;2024-01-27T12:19:53;6.35;;;4.63;;
19566;SDS011;9930;49.240;8.548;2024-01-27T12:22:22;4.43;;;4.03;;
19566;SDS011;9930;49.240;8.548;2024-01-27T12:24:55;5.28;;;4.30;;
19566;SDS011;9930;49.240;8.548;2024-01-27T12:27:33;7.60;;;4.10;;
19566;SDS011;9930;49.240;8.548;2024-01-27T12:30:00;6.03;;;3.85;;
19566;SDS011;9930;49.240;8.548;2024-01-27T12:32:26;6.45;;;4.00;;
19566;SDS011;9930;49.240;8.548;2024-01-27T12:34:57;4.43;;;3.33;;
19566;SDS011;9930;49.240;8.548;2024-01-27T12:37:27;4.40;;;3.20;;
19566;SDS011;9930;49.240;8.548;2024-01-27T12:39:55;4.65;;;2.90;;
19566;SDS011;9930;49.240;8.548;2024-01-27T12:42:20;6.38;;;3.35;;
19566;SDS011;9930;49.240;8.548;2024-01-27T12:44:46;6.05;;;3.08;;
19566;SDS011;9930;49.240;8.548;2024-01-27T12:47:12;3.38;;;2.85;;
19566;SDS011;9930;49.240;8.548;2024-01-27T12:49:41;6.65;;;3.67;;
19566;SDS011;9930;49.240;8.548;2024-01-27T12:52:09;4.53;;;3.00;;
19566;SDS011;9930;49.240;8.548;2024-01-27T12:54:34;5.80;;;3.70;;
19566;SDS011;9930;49.240;8.548;2024-01-27T12:57:00;4.90;;;3.05;;
19566;SDS011;9930;49.240;8.548;2024-01-27T12:59:29;4.15;;;3.30;;
19566;SDS011;9930;49.240;8.548;2024-01-27T13:01:56;4.80;;;2.88;;
19566;SDS011;9930;49.240;8.548;2024-01-27T13:04:26;7.72;;;3.00;;
19566;SDS011;9930;49.240;8.548;2024-01-27T13:06:58;4.82;;;3.28;;
19566;SDS011;9930;49.240;8.548;2024-01-27T13:09:27;5.40;;;3.20;;
19566;SDS011;9930;49.240;8.548;2024-01-27T13:11:56;4.63;;;2.95;;
19566;SDS011;9930;49.240;8.548;2024-01-27T13:14:26;4.18;;;3.53;;
19566;SDS011;9930;49.240;8.548;2024-01-27T13:16:53;3.30;;;2.80;;
19566;SDS011;9930;49.240;8.548;2024-01-27T13:19:19;3.17;;;2.60;;
19566;SDS011;9930;49.240;8.548;2024-01-27T13:21:47;5.65;;;3.20;;
19566;SDS011;9930;49.240;8.548;2024-01-27T13:24:13;3.55;;;2.88;;
19566;SDS011;9930;49.240;8.548;2024-01-27T13:26:39;5.30;;;3.50;;
19566;SDS011;9930;49.240;8.548;2024-01-27T13:29:05;4.45;;;3.08;;
19566;SDS011;9930;49.240;8.548;2024-01-27T13:31:33;3.70;;;2.70;;
19566;SDS011;9930;49.240;8.548;2024-01-27T13:34:01;3.97;;;2.50;;
19566;SDS011;9930;49.240;8.548;2024-01-27T13:36:30;5.13;;;3.10;;
19566;SDS011;9930;49.240;8.548;2024-01-27T13:38:56;4.45;;;3.17;;
19566;SDS011;9930;49.240;8.548;2024-01-27T13:41:29;5.70;;;3.58;;
19566;SDS011;9930;49.240;8.548;2024-01-27T13:43:59;4.53;;;3.33;;
19566;SDS011;9930;49.240;8.548;2024-01-27T13:46:28;6.00;;;3.30;;
19566;SDS011;9930;49.240;8.548;2024-01-27T13:48:58;5.13;;;3.03;;
19566;SDS011;9930;49.240;8.548;2024-01-27T13:51:24;3.38;;;2.65;;
19566;SDS011;9930;49.240;8.548;2024-01-27T13:53:52;5.53;;;3.15;;
19566;SDS011;9930;49.240;8.548;2024-01-27T13:56:20;6.55;;;2.92;;
19566;SDS011;9930;49.240;8.548;2024-01-27T13:58:53;5.30;;;3.30;;
19566;SDS011;9930;49.240;8.548;2024-01-27T14:01:18;3.90;;;2.38;;
19566;SDS011;9930;49.240;8.548;2024-01-27T14:03:44;3.40;;;2.45;;
19566;SDS011;9930;49.240;8.548;2024-01-27T14:06:10;4.55;;;2.72;;
19566;SDS011;9930;49.240;8.548;2024-01-27T14:08:37;4.07;;;2.30;;
19566;SDS011;9930;49.240;8.548;2024-01-27T14:11:05;4.32;;;2.50;;
19566;SDS011;9930;49.240;8.548;2024-01-27T14:13:33;5.13;;;2.90;;
19566;SDS011;9930;49.240;8.548;2024-01-27T14:16:00;4.03;;;2.50;;
19566;SDS011;9930;49.240;8.548;2024-01-27T14:18:29;5.00;;;2.83;;
19566;SDS011;9930;49.240;8.548;2024-01-27T14:20:58;6.47;;;3.20;;
19566;SDS011;9930;49.240;8.548;2024-01-27T14:23:24;5.45;;;3.67;;
19566;SDS011;9930;49.240;8.548;2024-01-27T14:25:50;4.88;;;3.08;;
19566;SDS011;9930;49.240;8.548;2024-01-27T14:28:15;4.70;;;3.08;;
19566;SDS011;9930;49.240;8.548;2024-01-27T14:30:43;4.50;;;3.70;;
19566;SDS011;9930;49.240;8.548;2024-01-27T14:33:10;6.93;;;3.97;;
19566;SDS011;9930;49.240;8.548;2024-01-27T14:35:36;6.57;;;4.53;;
19566;SDS011;9930;49.240;8.548;2024-01-27T14:38:02;6.15;;;4.18;;
19566;SDS011;9930;49.240;8.548;2024-01-27T14:40:33;7.63;;;4.65;;
19566;SDS011;9930;49.240;8.548;2024-01-27T14:43:02;5.95;;;3.90;;
19566;SDS011;9930;49.240;8.548;2024-01-27T14:45:33;6.93;;;4.43;;
19566;SDS011;9930;49.240;8.548;2024-01-27T14:48:06;7.80;;;4.35;;
19566;SDS011;9930;49.240;8.548;2024-01-27T14:50:35;5.70;;;3.80;;
19566;SDS011;9930;49.240;8.548;2024-01-27T14:53:00;5.10;;;3.58;;
19566;SDS011;9930;49.240;8.548;2024-01-27T14:55:27;4.30;;;3.05;;
19566;SDS011;9930;49.240;8.548;2024-01-27T14:58:02;4.35;;;2.97;;
19566;SDS011;9930;49.240;8.548;2024-01-27T15:00:28;4.07;;;2.90;;
19566;SDS011;9930;49.240;8.548;2024-01-27T15:02:57;3.00;;;2.28;;
19566;SDS011;9930;49.240;8.548;2024-01-27T15:05:27;4.05;;;2.40;;
19566;SDS011;9930;49.240;8.548;2024-01-27T15:07:55;4.55;;;2.72;;
19566;SDS011;9930;49.240;8.548;2024-01-27T15:10:20;4.25;;;2.50;;